createdAt,value
2023-03-05T00:00:14.724Z,82.39
2023-03-05T00:00:46.701Z,82.48
2023-03-05T00:01:27.938Z,82.62
2023-03-05T00:02:00.000Z,82.59
2023-03-05T00:02:32.580Z,82.48
2023-03-05T00:03:04.391Z,82.59
2023-03-05T00:03:36.210Z,82.23
2023-03-05T00:04:10.908Z,82.14
2023-03-05T00:04:42.691Z,82.26
2023-03-05T00:05:14.635Z,82.26
2023-03-05T00:05:46.240Z,82.24
2023-03-05T00:06:19.282Z,82.21
2023-03-05T00:06:51.231Z,82.39
2023-03-05T00:07:23.120Z,82.33
2023-03-05T00:07:54.728Z,82.37
2023-03-05T00:08:28.428Z,82.26
2023-03-05T00:09:00.349Z,82.29
2023-03-05T00:09:32.593Z,82.41
2023-03-05T00:10:06.512Z,82.25
2023-03-05T00:10:38.259Z,82.27
2023-03-05T00:11:12.320Z,82.50
2023-03-05T00:11:43.974Z,82.70
2023-03-05T00:12:17.174Z,82.72
2023-03-05T00:12:48.852Z,82.72
2023-03-05T00:13:20.438Z,82.63
2023-03-05T00:13:53.025Z,82.65
2023-03-05T00:14:24.638Z,82.57
2023-03-05T00:14:56.255Z,82.51
2023-03-05T00:15:27.853Z,82.72
2023-03-05T00:15:59.716Z,82.73
2023-03-05T00:16:31.619Z,82.64
2023-03-05T00:17:03.252Z,82.36
2023-03-05T00:17:35.043Z,82.31
2023-03-05T00:18:06.658Z,82.41
2023-03-05T00:18:39.285Z,82.68
2023-03-05T00:19:11.483Z,82.65
2023-03-05T00:19:43.160Z,82.85
2023-03-05T00:20:15.068Z,82.55
2023-03-05T00:20:47.044Z,82.48
2023-03-05T00:21:23.472Z,82.51
2023-03-05T00:21:55.111Z,82.51
2023-03-05T00:22:26.718Z,82.41
2023-03-05T00:22:58.386Z,82.57
2023-03-05T00:23:29.978Z,82.65
2023-03-05T00:24:03.688Z,82.76
2023-03-05T00:24:35.648Z,82.69
2023-03-05T00:25:07.682Z,82.74
2023-03-05T00:25:39.472Z,82.66
2023-03-05T00:26:11.233Z,82.68
2023-03-05T00:26:43.704Z,82.58
2023-03-05T00:27:15.330Z,82.34
2023-03-05T00:27:46.908Z,82.44
2023-03-05T00:28:18.642Z,82.42
2023-03-05T00:28:51.906Z,82.35
2023-03-05T00:29:23.570Z,82.26
2023-03-05T00:29:55.191Z,82.31
2023-03-05T00:30:27.147Z,82.42
2023-03-05T00:31:02.233Z,82.51
2023-03-05T00:31:36.461Z,82.48
2023-03-05T00:32:08.193Z,82.50
2023-03-05T00:32:39.933Z,82.46
2023-03-05T00:33:13.265Z,82.35
2023-03-05T00:33:45.153Z,82.23
2023-03-05T00:34:18.454Z,82.11
2023-03-05T00:34:50.167Z,82.12
2023-03-05T00:35:21.864Z,82.19
2023-03-05T00:35:53.738Z,82.33
2023-03-05T00:36:25.532Z,82.30
2023-03-05T00:36:57.530Z,82.28
2023-03-05T00:37:29.350Z,82.21
2023-03-05T00:38:00.903Z,82.47
2023-03-05T00:38:33.425Z,82.47
2023-03-05T00:39:05.269Z,82.46
2023-03-05T00:39:37.078Z,82.54
2023-03-05T00:40:09.750Z,82.69
2023-03-05T00:40:41.870Z,82.89
2023-03-05T00:41:13.690Z,82.91
2023-03-05T00:41:45.714Z,82.87
2023-03-05T00:42:17.287Z,83.01
2023-03-05T00:42:48.945Z,83.05
2023-03-05T00:43:20.565Z,83.18
2023-03-05T00:43:52.241Z,83.18
2023-03-05T00:44:24.334Z,83.39
2023-03-05T00:44:55.901Z,83.56
2023-03-05T00:45:27.461Z,83.53
2023-03-05T00:45:59.205Z,83.32
2023-03-05T00:46:30.874Z,83.30
2023-03-05T00:47:02.560Z,83.33
2023-03-05T00:47:34.777Z,83.39
2023-03-05T00:48:06.712Z,83.42
2023-03-05T00:48:38.305Z,83.50
2023-03-05T00:49:09.906Z,83.79
2023-03-05T00:49:41.498Z,83.98
2023-03-05T00:50:13.092Z,84.02
2023-03-05T00:50:44.739Z,84.01
2023-03-05T00:51:16.477Z,84.04
2023-03-05T00:51:48.112Z,84.11
2023-03-05T00:52:19.833Z,83.85
2023-03-05T00:52:51.783Z,83.64
2023-03-05T00:53:23.571Z,83.86
2023-03-05T00:53:55.627Z,84.06
2023-03-05T00:54:27.275Z,84.13
2023-03-05T00:54:59.032Z,84.28
2023-03-05T00:55:30.677Z,84.61
2023-03-05T00:56:02.402Z,84.70
2023-03-05T00:56:34.469Z,84.57
2023-03-05T00:57:06.145Z,84.55
2023-03-05T00:57:37.796Z,84.53
2023-03-05T00:58:09.424Z,84.58
2023-03-05T00:58:41.019Z,84.57
2023-03-05T00:59:12.599Z,84.81
2023-03-05T00:59:44.240Z,84.58
2023-03-05T01:00:16.527Z,84.36
2023-03-05T01:00:50.888Z,84.32
2023-03-05T01:01:22.725Z,84.06
2023-03-05T01:01:54.488Z,84.24
2023-03-05T01:02:26.369Z,84.53
2023-03-05T01:02:57.968Z,84.46
2023-03-05T01:03:31.704Z,84.62
2023-03-05T01:04:03.560Z,84.60
2023-03-05T01:04:35.273Z,84.56
2023-03-05T01:05:07.520Z,84.28
2023-03-05T01:05:39.241Z,84.15
2023-03-05T01:06:12.885Z,83.94
2023-03-05T01:06:46.266Z,83.94
2023-03-05T01:07:18.039Z,84.29
2023-03-05T01:07:53.107Z,84.60
2023-03-05T01:08:25.597Z,84.59
2023-03-05T01:08:57.481Z,84.45
2023-03-05T01:09:29.122Z,84.17
2023-03-05T01:10:00.889Z,83.95
2023-03-05T01:10:32.721Z,84.02
2023-03-05T01:11:05.716Z,84.00
2023-03-05T01:11:37.611Z,84.25
2023-03-05T01:12:09.446Z,84.25
2023-03-05T01:12:41.033Z,84.37
2023-03-05T01:13:12.631Z,84.39
2023-03-05T01:13:44.254Z,84.50
2023-03-05T01:14:15.901Z,84.42
2023-03-05T01:14:47.536Z,84.48
2023-03-05T01:15:19.280Z,84.62
2023-03-05T01:15:51.213Z,84.72
2023-03-05T01:16:23.083Z,84.75
2023-03-05T01:16:54.859Z,84.57
2023-03-05T01:17:26.462Z,84.86
2023-03-05T01:17:58.066Z,85.18
2023-03-05T01:18:29.729Z,85.38
2023-03-05T01:19:01.510Z,85.44
2023-03-05T01:19:33.231Z,85.14
2023-03-05T01:20:06.103Z,84.94
2023-03-05T01:20:37.855Z,84.94
2023-03-05T01:21:09.658Z,84.90
2023-03-05T01:21:42.321Z,85.02
2023-03-05T01:22:14.094Z,85.10
2023-03-05T01:22:45.716Z,85.14
2023-03-05T01:23:17.472Z,85.26
2023-03-05T01:23:49.229Z,85.40
2023-03-05T01:24:21.676Z,85.61
2023-03-05T01:24:53.367Z,85.67
2023-03-05T01:25:25.555Z,86.11
2023-03-05T01:25:58.979Z,86.24
2023-03-05T01:26:30.891Z,86.32
2023-03-05T01:27:02.582Z,86.58
2023-03-05T01:27:34.759Z,86.36
2023-03-05T01:28:07.302Z,86.24
2023-03-05T01:28:40.036Z,86.24
2023-03-05T01:29:11.698Z,86.21
2023-03-05T01:29:43.305Z,86.64
2023-03-05T01:30:15.907Z,86.69
2023-03-05T01:30:47.599Z,86.94
2023-03-05T01:31:19.296Z,87.06
2023-03-05T01:31:50.941Z,87.21
2023-03-05T01:32:22.781Z,86.85
2023-03-05T01:32:55.331Z,86.63
2023-03-05T01:33:27.122Z,86.61
2023-03-05T01:34:00.401Z,86.49
2023-03-05T01:34:32.283Z,86.38
2023-03-05T01:35:05.530Z,86.28
2023-03-05T01:35:37.453Z,86.52
2023-03-05T01:36:13.529Z,86.21
2023-03-05T01:36:45.206Z,86.32
2023-03-05T01:37:16.889Z,86.34
2023-03-05T01:37:49.183Z,86.19
2023-03-05T01:38:20.949Z,85.97
2023-03-05T01:38:52.739Z,86.01
2023-03-05T01:39:24.323Z,86.17
2023-03-05T01:39:55.897Z,86.09
2023-03-05T01:40:30.276Z,86.18
2023-03-05T01:41:01.919Z,86.09
2023-03-05T01:41:34.191Z,85.95
2023-03-05T01:42:06.448Z,85.83
2023-03-05T01:42:38.174Z,86.13
2023-03-05T01:43:12.784Z,86.22
2023-03-05T01:43:50.053Z,86.49
2023-03-05T01:44:25.759Z,86.11
2023-03-05T01:45:06.116Z,85.95
2023-03-05T01:45:38.693Z,86.06
2023-03-05T01:46:29.614Z,86.05
2023-03-05T01:47:01.426Z,85.84
2023-03-05T01:47:33.105Z,85.80
2023-03-05T01:48:04.795Z,85.67
2023-03-05T01:48:36.412Z,85.43
2023-03-05T01:49:24.544Z,85.19
2023-03-05T01:49:56.734Z,85.14
2023-03-05T01:50:28.855Z,85.15
2023-03-05T01:51:00.636Z,85.14
2023-03-05T01:51:38.163Z,85.29
2023-03-05T01:52:19.919Z,85.35
2023-03-05T01:53:04.027Z,85.24
2023-03-05T01:53:36.504Z,85.19
2023-03-05T01:54:10.973Z,85.25
2023-03-05T01:54:48.019Z,85.45
2023-03-05T01:55:24.927Z,85.42
2023-03-05T01:55:56.910Z,85.94
2023-03-05T01:56:29.923Z,86.04
2023-03-05T01:57:08.172Z,85.97
2023-03-05T01:57:53.938Z,85.88
2023-03-05T01:58:26.084Z,85.78
2023-03-05T01:59:03.752Z,85.54
2023-03-05T01:59:37.879Z,85.71
2023-03-05T02:00:18.909Z,85.85
2023-03-05T02:00:53.688Z,85.60
2023-03-05T02:01:25.404Z,85.59
2023-03-05T02:01:58.896Z,85.98
2023-03-05T02:02:30.869Z,86.03
2023-03-05T02:03:05.860Z,85.92
2023-03-05T02:03:38.324Z,86.07
2023-03-05T02:04:13.522Z,86.39
2023-03-05T02:04:50.987Z,86.44
2023-03-05T02:05:34.561Z,86.45
2023-03-05T02:06:06.222Z,85.89
2023-03-05T02:06:40.687Z,85.49
2023-03-05T02:07:12.892Z,85.33
2023-03-05T02:07:45.276Z,85.61
2023-03-05T02:08:20.868Z,85.58
2023-03-05T02:08:52.564Z,85.16
2023-03-05T02:09:24.122Z,84.97
2023-03-05T02:09:55.688Z,84.96
2023-03-05T02:10:33.949Z,85.54
2023-03-05T02:11:05.951Z,86.09
2023-03-05T02:11:37.753Z,85.68
2023-03-05T02:12:11.568Z,85.54
2023-03-05T02:12:43.304Z,85.28
2023-03-05T02:13:19.249Z,85.18
2023-03-05T02:13:50.912Z,85.18
2023-03-05T02:14:24.409Z,85.31
2023-03-05T02:14:59.457Z,85.50
2023-03-05T02:15:32.823Z,85.68
2023-03-05T02:16:04.751Z,85.55
2023-03-05T02:16:37.942Z,85.31
2023-03-05T02:17:12.487Z,84.97
2023-03-05T02:17:44.243Z,84.87
2023-03-05T02:18:17.693Z,85.28
2023-03-05T02:18:49.401Z,85.53
2023-03-05T02:19:21.030Z,85.71
2023-03-05T02:19:56.397Z,85.91
2023-03-05T02:20:30.620Z,85.75
2023-03-05T02:21:06.991Z,85.64
2023-03-05T02:21:45.225Z,85.38
2023-03-05T02:22:19.055Z,85.08
2023-03-05T02:22:50.644Z,85.01
2023-03-05T02:23:30.878Z,85.08
2023-03-05T02:24:02.539Z,85.06
2023-03-05T02:24:37.254Z,85.51
2023-03-05T02:25:30.612Z,85.67
2023-03-05T02:26:07.927Z,85.76
2023-03-05T02:26:39.953Z,86.22
2023-03-05T02:27:13.126Z,86.40
2023-03-05T02:27:51.675Z,86.52
2023-03-05T02:28:28.031Z,86.48
2023-03-05T02:29:02.764Z,86.25
2023-03-05T02:29:39.021Z,86.48
2023-03-05T02:30:11.258Z,86.44
2023-03-05T02:30:43.008Z,86.11
2023-03-05T02:31:17.902Z,86.09
2023-03-05T02:31:49.678Z,86.10
2023-03-05T02:32:21.464Z,86.79
2023-03-05T02:32:53.133Z,86.59
2023-03-05T02:33:25.257Z,86.19
2023-03-05T02:33:57.092Z,86.13
2023-03-05T02:34:28.671Z,85.88
2023-03-05T02:35:00.409Z,85.59
2023-03-05T02:35:32.515Z,85.85
2023-03-05T02:36:04.602Z,86.31
2023-03-05T02:36:36.187Z,86.50
2023-03-05T02:37:09.447Z,86.12
2023-03-05T02:37:41.690Z,85.94
2023-03-05T02:38:15.391Z,86.14
2023-03-05T02:38:48.130Z,86.86
2023-03-05T02:39:19.866Z,87.06
2023-03-05T02:39:51.568Z,86.73
2023-03-05T02:40:23.647Z,86.73
2023-03-05T02:40:55.493Z,86.93
2023-03-05T02:41:27.388Z,86.57
2023-03-05T02:41:59.139Z,86.23
2023-03-05T02:42:33.612Z,86.01
2023-03-05T02:43:05.663Z,86.05
2023-03-05T02:43:37.868Z,86.28
2023-03-05T02:44:09.884Z,86.61
2023-03-05T02:44:41.504Z,86.69
2023-03-05T02:45:13.982Z,86.71
2023-03-05T02:45:45.772Z,86.63
2023-03-05T02:46:17.803Z,86.51
2023-03-05T02:46:49.736Z,86.42
2023-03-05T02:47:21.383Z,86.29
2023-03-05T02:47:52.996Z,86.30
2023-03-05T02:48:24.639Z,86.32
2023-03-05T02:48:56.227Z,86.62
2023-03-05T02:49:28.284Z,86.56
2023-03-05T02:50:00.196Z,86.45
2023-03-05T02:50:33.070Z,86.54
2023-03-05T02:51:06.875Z,86.31
2023-03-05T02:51:38.503Z,86.39
2023-03-05T02:52:10.157Z,86.63
2023-03-05T02:52:41.737Z,86.77
2023-03-05T02:53:13.354Z,86.95
2023-03-05T02:53:44.998Z,86.97
2023-03-05T02:54:16.606Z,86.88
2023-03-05T02:54:48.205Z,86.89
2023-03-05T02:55:20.087Z,86.64
2023-03-05T02:55:51.954Z,86.56
2023-03-05T02:56:23.722Z,86.53
2023-03-05T02:56:55.299Z,86.46
2023-03-05T02:57:26.988Z,86.46
2023-03-05T02:57:58.581Z,86.48
2023-03-05T02:58:30.212Z,86.45
2023-03-05T02:59:01.795Z,86.41
2023-03-05T02:59:33.491Z,86.50
2023-03-05T03:00:07.560Z,86.95
2023-03-05T03:00:39.257Z,86.98
2023-03-05T03:01:10.964Z,87.25
2023-03-05T03:01:42.741Z,87.33
2023-03-05T03:02:14.691Z,87.35
2023-03-05T03:02:46.348Z,87.33
2023-03-05T03:03:18.110Z,87.20
2023-03-05T03:03:49.769Z,86.97
2023-03-05T03:04:21.445Z,86.69
2023-03-05T03:04:53.013Z,86.44
2023-03-05T03:05:24.962Z,86.43
2023-03-05T03:05:56.712Z,86.17
2023-03-05T03:06:28.410Z,86.04
2023-03-05T03:07:00.012Z,86.32
2023-03-05T03:07:31.602Z,86.52
2023-03-05T03:08:03.414Z,86.52
2023-03-05T03:08:34.999Z,86.57
2023-03-05T03:09:06.612Z,86.75
2023-03-05T03:09:39.009Z,87.17
2023-03-05T03:10:11.855Z,87.46
2023-03-05T03:10:43.424Z,87.84
2023-03-05T03:11:15.299Z,87.64
2023-03-05T03:11:46.916Z,87.59
2023-03-05T03:12:18.600Z,87.69
2023-03-05T03:12:50.182Z,87.53
2023-03-05T03:13:22.131Z,87.72
2023-03-05T03:13:53.742Z,87.51
2023-03-05T03:14:25.379Z,87.38
2023-03-05T03:14:56.999Z,87.12
2023-03-05T03:15:28.619Z,86.97
2023-03-05T03:16:05.672Z,87.16
2023-03-05T03:16:37.426Z,87.13
2023-03-05T03:17:12.239Z,87.32
2023-03-05T03:17:43.876Z,87.53
2023-03-05T03:18:15.451Z,87.87
2023-03-05T03:18:48.911Z,87.98
2023-03-05T03:19:20.650Z,87.87
2023-03-05T03:19:52.562Z,87.70
2023-03-05T03:20:24.319Z,87.89
2023-03-05T03:20:55.932Z,88.39
2023-03-05T03:21:27.572Z,88.62
2023-03-05T03:21:59.251Z,88.08
2023-03-05T03:22:30.866Z,87.83
2023-03-05T03:23:02.455Z,87.81
2023-03-05T03:23:34.508Z,87.86
2023-03-05T03:24:06.349Z,87.78
2023-03-05T03:24:40.663Z,88.07
2023-03-05T03:25:21.199Z,88.46
2023-03-05T03:25:53.007Z,88.71
2023-03-05T03:26:24.635Z,88.62
2023-03-05T03:26:56.263Z,88.52
2023-03-05T03:27:27.880Z,88.46
2023-03-05T03:27:59.502Z,88.60
2023-03-05T03:28:31.391Z,88.66
2023-03-05T03:29:03.094Z,88.77
2023-03-05T03:29:34.998Z,89.07
2023-03-05T03:30:07.761Z,88.83
2023-03-05T03:30:39.478Z,88.70
2023-03-05T03:31:11.854Z,88.88
2023-03-05T03:31:45.768Z,88.95
2023-03-05T03:32:17.451Z,88.97
2023-03-05T03:32:51.238Z,89.04
2023-03-05T03:33:22.903Z,88.92
2023-03-05T03:33:55.168Z,88.58
2023-03-05T03:34:27.253Z,88.48
2023-03-05T03:35:00.449Z,88.64
2023-03-05T03:35:32.206Z,88.62
2023-03-05T03:36:05.028Z,88.41
2023-03-05T03:36:36.600Z,88.58
2023-03-05T03:37:09.025Z,88.72
2023-03-05T03:37:40.970Z,88.71
2023-03-05T03:38:13.922Z,88.78
2023-03-05T03:38:45.644Z,88.64
2023-03-05T03:39:17.523Z,88.41
2023-03-05T03:39:49.227Z,88.20
2023-03-05T03:40:21.084Z,88.21
2023-03-05T03:40:52.659Z,88.14
2023-03-05T03:41:24.298Z,87.90
2023-03-05T03:41:56.691Z,88.28
2023-03-05T03:42:28.265Z,88.53
2023-03-05T03:42:59.864Z,88.83
2023-03-05T03:43:31.470Z,88.99
2023-03-05T03:44:04.988Z,88.86
2023-03-05T03:44:36.687Z,88.60
2023-03-05T03:45:09.292Z,88.38
2023-03-05T03:45:43.001Z,88.62
2023-03-05T03:46:14.765Z,88.79
2023-03-05T03:46:48.077Z,88.88
2023-03-05T03:47:19.695Z,89.06
2023-03-05T03:47:52.025Z,89.10
2023-03-05T03:48:23.650Z,89.01
2023-03-05T03:48:55.438Z,88.97
2023-03-05T03:49:27.290Z,89.02
2023-03-05T03:49:59.180Z,89.06
2023-03-05T03:50:30.793Z,88.98
2023-03-05T03:51:05.503Z,88.92
2023-03-05T03:51:37.239Z,89.13
2023-03-05T03:52:08.911Z,89.17
2023-03-05T03:52:40.656Z,89.13
2023-03-05T03:53:16.256Z,89.01
2023-03-05T03:53:47.896Z,89.17
2023-03-05T03:54:20.409Z,89.41
2023-03-05T03:54:53.175Z,89.39
2023-03-05T03:55:24.845Z,89.45
2023-03-05T03:56:00.051Z,89.18
2023-03-05T03:56:31.589Z,88.82
2023-03-05T03:57:03.741Z,88.65
2023-03-05T03:57:36.481Z,88.47
2023-03-05T03:58:08.622Z,88.42
2023-03-05T03:58:40.355Z,88.41
2023-03-05T03:59:12.520Z,88.16
2023-03-05T03:59:46.073Z,88.28
2023-03-05T04:00:18.443Z,88.49
2023-03-05T04:00:50.228Z,88.42
2023-03-05T04:01:21.955Z,88.36
2023-03-05T04:01:53.570Z,88.62
2023-03-05T04:02:26.224Z,88.68
2023-03-05T04:02:57.930Z,88.40
2023-03-05T04:03:29.552Z,88.26
2023-03-05T04:04:01.583Z,88.09
2023-03-05T04:04:33.446Z,87.86
2023-03-05T04:05:05.547Z,87.52
2023-03-05T04:05:37.122Z,87.51
2023-03-05T04:06:09.592Z,87.52
2023-03-05T04:06:41.317Z,87.84
2023-03-05T04:07:13.127Z,88.13
2023-03-05T04:07:45.443Z,88.43
2023-03-05T04:08:17.023Z,88.60
2023-03-05T04:08:48.638Z,88.36
2023-03-05T04:09:20.259Z,88.73
2023-03-05T04:09:52.020Z,88.79
2023-03-05T04:10:23.718Z,88.92
2023-03-05T04:10:55.341Z,88.88
2023-03-05T04:11:26.971Z,88.61
2023-03-05T04:11:58.726Z,88.67
2023-03-05T04:12:30.320Z,88.60
2023-03-05T04:13:01.890Z,88.42
2023-03-05T04:13:33.531Z,88.40
2023-03-05T04:14:05.886Z,88.01
2023-03-05T04:14:37.614Z,87.84
2023-03-05T04:15:10.749Z,87.96
2023-03-05T04:15:42.408Z,88.11
2023-03-05T04:16:15.447Z,88.14
2023-03-05T04:16:47.180Z,88.08
2023-03-05T04:17:18.747Z,88.13
2023-03-05T04:17:50.445Z,87.92
2023-03-05T04:18:22.458Z,87.96
2023-03-05T04:18:54.064Z,87.90
2023-03-05T04:19:25.761Z,87.92
2023-03-05T04:19:57.451Z,88.17
2023-03-05T04:20:29.095Z,88.18
2023-03-05T04:21:00.720Z,88.11
2023-03-05T04:21:32.515Z,88.01
2023-03-05T04:22:04.654Z,88.16
2023-03-05T04:22:37.543Z,87.66
2023-03-05T04:23:09.584Z,87.56
2023-03-05T04:23:41.254Z,87.64
2023-03-05T04:24:12.953Z,87.81
2023-03-05T04:24:44.750Z,87.89
2023-03-05T04:25:16.379Z,87.65
2023-03-05T04:25:48.033Z,87.59
2023-03-05T04:26:19.773Z,87.68
2023-03-05T04:26:51.401Z,87.61
2023-03-05T04:27:23.066Z,87.49
2023-03-05T04:27:54.646Z,87.38
2023-03-05T04:28:26.398Z,87.45
2023-03-05T04:28:58.071Z,87.97
2023-03-05T04:29:29.721Z,87.92
2023-03-05T04:30:01.699Z,87.76
2023-03-05T04:30:33.881Z,87.91
2023-03-05T04:31:05.997Z,88.22
2023-03-05T04:31:37.653Z,88.26
2023-03-05T04:32:09.293Z,88.62
2023-03-05T04:32:42.062Z,88.73
2023-03-05T04:33:13.735Z,88.57
2023-03-05T04:33:45.344Z,88.22
2023-03-05T04:34:16.978Z,87.81
2023-03-05T04:34:49.077Z,87.63
2023-03-05T04:35:20.804Z,87.50
2023-03-05T04:35:52.691Z,87.35
2023-03-05T04:36:24.357Z,87.55
2023-03-05T04:36:55.975Z,87.48
2023-03-05T04:37:27.893Z,87.39
2023-03-05T04:37:59.557Z,87.39
2023-03-05T04:38:31.132Z,87.92
2023-03-05T04:39:03.061Z,88.19
2023-03-05T04:39:34.957Z,88.25
2023-03-05T04:40:07.671Z,87.96
2023-03-05T04:40:39.656Z,87.91
2023-03-05T04:41:11.318Z,87.98
2023-03-05T04:41:42.913Z,88.37
2023-03-05T04:42:14.547Z,88.36
2023-03-05T04:42:46.180Z,88.37
2023-03-05T04:43:17.984Z,88.44
2023-03-05T04:43:49.608Z,88.52
2023-03-05T04:44:23.345Z,88.23
2023-03-05T04:44:54.993Z,88.01
2023-03-05T04:45:26.599Z,88.18
2023-03-05T04:45:58.446Z,88.27
2023-03-05T04:46:30.264Z,88.26
2023-03-05T04:47:02.032Z,88.25
2023-03-05T04:47:33.946Z,88.07
2023-03-05T04:48:05.870Z,88.16
2023-03-05T04:48:37.682Z,88.46
2023-03-05T04:49:09.353Z,88.40
2023-03-05T04:49:40.987Z,88.07
2023-03-05T04:50:13.062Z,88.16
2023-03-05T04:50:44.697Z,88.21
2023-03-05T04:51:16.271Z,88.19
2023-03-05T04:51:47.951Z,87.73
2023-03-05T04:52:19.586Z,87.48
2023-03-05T04:52:51.298Z,87.50
2023-03-05T04:53:22.865Z,87.25
2023-03-05T04:53:54.475Z,87.19
2023-03-05T04:54:26.149Z,87.14
2023-03-05T04:54:58.066Z,86.95
2023-03-05T04:55:29.955Z,87.05
2023-03-05T04:56:01.731Z,87.08
2023-03-05T04:56:34.195Z,87.03
2023-03-05T04:57:06.457Z,87.24
2023-03-05T04:57:38.154Z,87.26
2023-03-05T04:58:10.319Z,87.15
2023-03-05T04:58:41.955Z,86.99
2023-03-05T04:59:13.696Z,86.81
2023-03-05T04:59:45.263Z,86.74
2023-03-05T05:00:17.392Z,86.77
2023-03-05T05:00:49.398Z,87.20
2023-03-05T05:01:21.713Z,87.13
2023-03-05T05:01:53.423Z,87.04
2023-03-05T05:02:25.243Z,87.07
2023-03-05T05:02:57.058Z,87.44
2023-03-05T05:03:29.028Z,87.87
2023-03-05T05:04:00.629Z,88.06
2023-03-05T05:04:32.450Z,88.00
2023-03-05T05:05:04.248Z,87.58
2023-03-05T05:05:36.009Z,87.54
2023-03-05T05:06:08.196Z,87.39
2023-03-05T05:06:39.805Z,87.27
2023-03-05T05:07:12.752Z,87.40
2023-03-05T05:07:44.855Z,87.19
2023-03-05T05:08:16.428Z,86.89
2023-03-05T05:08:48.068Z,86.77
2023-03-05T05:09:19.820Z,86.70
2023-03-05T05:09:51.500Z,87.09
2023-03-05T05:10:24.335Z,87.79
2023-03-05T05:11:00.998Z,87.88
2023-03-05T05:11:32.719Z,87.35
2023-03-05T05:12:05.195Z,87.27
2023-03-05T05:12:37.546Z,87.39
2023-03-05T05:13:09.207Z,86.79
2023-03-05T05:13:40.945Z,86.47
2023-03-05T05:14:12.819Z,86.60
2023-03-05T05:14:44.545Z,86.45
2023-03-05T05:15:16.327Z,86.59
2023-03-05T05:15:47.948Z,86.58
2023-03-05T05:16:19.693Z,86.54
2023-03-05T05:16:51.551Z,87.00
2023-03-05T05:17:23.183Z,86.75
2023-03-05T05:17:54.804Z,86.42
2023-03-05T05:18:26.661Z,86.37
2023-03-05T05:18:58.628Z,86.35
2023-03-05T05:19:30.428Z,86.49
2023-03-05T05:20:04.967Z,86.66
2023-03-05T05:20:36.541Z,86.90
2023-03-05T05:21:10.814Z,86.73
2023-03-05T05:21:43.211Z,86.56
2023-03-05T05:22:14.982Z,86.73
2023-03-05T05:22:46.612Z,86.70
2023-03-05T05:23:18.815Z,86.88
2023-03-05T05:23:50.430Z,86.48
2023-03-05T05:24:22.028Z,86.22
2023-03-05T05:24:53.656Z,86.08
2023-03-05T05:25:25.387Z,86.02
2023-03-05T05:26:01.507Z,86.01
2023-03-05T05:26:33.297Z,85.80
2023-03-05T05:27:04.957Z,85.92
2023-03-05T05:27:37.679Z,86.07
2023-03-05T05:28:11.061Z,86.00
2023-03-05T05:28:44.247Z,85.93
2023-03-05T05:29:15.868Z,85.91
2023-03-05T05:29:50.324Z,85.89
2023-03-05T05:30:22.109Z,85.86
2023-03-05T05:30:54.074Z,85.91
2023-03-05T05:31:25.742Z,85.98
2023-03-05T05:31:57.499Z,85.90
2023-03-05T05:32:29.313Z,85.89
2023-03-05T05:33:01.025Z,85.89
2023-03-05T05:33:32.594Z,85.96
2023-03-05T05:34:04.158Z,85.94
2023-03-05T05:34:35.978Z,86.03
2023-03-05T05:35:07.863Z,86.09
2023-03-05T05:35:40.051Z,86.04
2023-03-05T05:36:14.572Z,85.88
2023-03-05T05:36:46.156Z,85.95
2023-03-05T05:37:17.720Z,86.12
2023-03-05T05:37:49.874Z,86.03
2023-03-05T05:38:21.531Z,86.10
2023-03-05T05:38:53.151Z,86.16
2023-03-05T05:39:24.755Z,86.16
2023-03-05T05:39:56.447Z,86.14
2023-03-05T05:40:28.059Z,86.05
2023-03-05T05:41:14.246Z,86.36
2023-03-05T05:41:45.923Z,86.21
2023-03-05T05:42:18.582Z,85.81
2023-03-05T05:42:50.202Z,85.76
2023-03-05T05:43:21.870Z,85.83
2023-03-05T05:43:53.476Z,85.83
2023-03-05T05:44:25.097Z,86.16
2023-03-05T05:44:56.841Z,86.41
2023-03-05T05:45:28.675Z,86.58
2023-03-05T05:46:06.317Z,86.57
2023-03-05T05:46:38.257Z,86.42
2023-03-05T05:47:09.949Z,86.20
2023-03-05T05:47:41.596Z,86.17
2023-03-05T05:48:13.285Z,86.22
2023-03-05T05:48:45.593Z,86.24
2023-03-05T05:49:17.186Z,86.19
2023-03-05T05:49:48.814Z,86.08
2023-03-05T05:50:21.128Z,86.04
2023-03-05T05:50:52.690Z,85.91
2023-03-05T05:51:24.741Z,85.59
2023-03-05T05:51:56.999Z,85.38
2023-03-05T05:52:28.595Z,85.48
2023-03-05T05:53:00.388Z,85.43
2023-03-05T05:53:32.539Z,85.36
2023-03-05T05:54:04.351Z,85.56
2023-03-05T05:54:36.180Z,85.83
2023-03-05T05:55:08.385Z,85.60
2023-03-05T05:55:41.238Z,85.33
2023-03-05T05:56:14.254Z,85.37
2023-03-05T05:56:45.901Z,85.45
2023-03-05T05:57:17.560Z,85.38
2023-03-05T05:57:49.344Z,85.58
2023-03-05T05:58:21.024Z,85.58
2023-03-05T05:58:52.735Z,85.46
2023-03-05T05:59:24.962Z,85.37
2023-03-05T05:59:56.793Z,85.16
2023-03-05T06:00:28.556Z,85.14
2023-03-05T06:01:00.332Z,85.15
2023-03-05T06:01:33.697Z,85.91
2023-03-05T06:02:06.330Z,85.85
2023-03-05T06:02:42.511Z,85.40
2023-03-05T06:03:14.475Z,85.18
2023-03-05T06:03:46.615Z,85.26
2023-03-05T06:04:18.395Z,85.26
2023-03-05T06:04:50.190Z,85.87
2023-03-05T06:05:22.257Z,85.87
2023-03-05T06:05:53.915Z,86.30
2023-03-05T06:06:27.237Z,86.38
2023-03-05T06:06:59.036Z,86.34
2023-03-05T06:07:31.664Z,86.02
2023-03-05T06:08:03.374Z,85.82
2023-03-05T06:08:35.108Z,85.81
2023-03-05T06:09:07.003Z,85.45
2023-03-05T06:09:38.821Z,85.47
2023-03-05T06:10:11.133Z,85.45
2023-03-05T06:10:42.794Z,85.21
2023-03-05T06:11:16.287Z,85.31
2023-03-05T06:11:48.764Z,86.31
2023-03-05T06:12:20.401Z,86.41
2023-03-05T06:12:52.012Z,86.85
2023-03-05T06:13:23.725Z,87.16
2023-03-05T06:13:55.507Z,87.45
2023-03-05T06:14:27.276Z,87.21
2023-03-05T06:14:58.989Z,86.98
2023-03-05T06:15:31.595Z,86.63
2023-03-05T06:16:06.557Z,87.21
2023-03-05T06:16:38.860Z,86.99
2023-03-05T06:17:12.851Z,86.80
2023-03-05T06:17:47.974Z,86.58
2023-03-05T06:18:19.768Z,86.27
2023-03-05T06:18:52.439Z,86.14
2023-03-05T06:19:24.020Z,86.47
2023-03-05T06:19:56.062Z,86.65
2023-03-05T06:20:28.580Z,86.49
2023-03-05T06:21:03.052Z,86.45
2023-03-05T06:21:34.761Z,87.14
2023-03-05T06:22:06.342Z,86.97
2023-03-05T06:22:39.468Z,86.57
2023-03-05T06:23:11.096Z,86.28
2023-03-05T06:23:43.496Z,86.21
2023-03-05T06:24:15.129Z,86.20
2023-03-05T06:24:46.716Z,86.43
2023-03-05T06:25:18.328Z,86.05
2023-03-05T06:25:50.160Z,85.69
2023-03-05T06:26:23.037Z,85.59
2023-03-05T06:26:54.618Z,85.44
2023-03-05T06:27:26.307Z,85.40
2023-03-05T06:27:57.990Z,85.44
2023-03-05T06:28:30.537Z,86.03
2023-03-05T06:29:02.775Z,86.34
2023-03-05T06:29:34.426Z,86.71
2023-03-05T06:30:07.035Z,86.59
2023-03-05T06:30:38.666Z,86.09
2023-03-05T06:31:19.102Z,85.66
2023-03-05T06:31:50.744Z,85.44
2023-03-05T06:32:23.319Z,85.34
2023-03-05T06:32:54.969Z,85.38
2023-03-05T06:33:26.607Z,85.32
2023-03-05T06:34:01.453Z,85.22
2023-03-05T06:34:33.104Z,85.32
2023-03-05T06:35:05.130Z,85.10
2023-03-05T06:35:40.112Z,84.83
2023-03-05T06:36:14.762Z,84.52
2023-03-05T06:36:46.416Z,84.55
2023-03-05T06:37:18.325Z,84.42
2023-03-05T06:37:49.907Z,84.38
2023-03-05T06:38:21.555Z,84.10
2023-03-05T06:38:53.953Z,84.11
2023-03-05T06:39:25.601Z,84.71
2023-03-05T06:39:57.237Z,85.49
2023-03-05T06:40:28.828Z,86.02
2023-03-05T06:41:09.492Z,85.85
2023-03-05T06:41:41.213Z,85.66
2023-03-05T06:42:12.869Z,85.44
2023-03-05T06:42:44.505Z,85.21
2023-03-05T06:43:16.225Z,85.82
2023-03-05T06:43:49.060Z,86.15
2023-03-05T06:44:20.753Z,86.14
2023-03-05T06:44:52.426Z,86.14
2023-03-05T06:45:24.069Z,85.97
2023-03-05T06:46:07.846Z,86.01
2023-03-05T06:46:39.713Z,85.53
2023-03-05T06:47:11.468Z,85.78
2023-03-05T06:47:43.253Z,86.27
2023-03-05T06:48:15.060Z,86.02
2023-03-05T06:48:47.635Z,85.82
2023-03-05T06:49:19.418Z,85.51
2023-03-05T06:49:51.114Z,85.16
2023-03-05T06:50:22.804Z,85.25
2023-03-05T06:50:54.409Z,85.24
2023-03-05T06:51:30.334Z,85.45
2023-03-05T06:52:02.181Z,85.06
2023-03-05T06:52:33.778Z,84.71
2023-03-05T06:53:05.595Z,84.79
2023-03-05T06:53:37.396Z,84.55
2023-03-05T06:54:12.352Z,84.45
2023-03-05T06:54:44.103Z,84.27
2023-03-05T06:55:15.675Z,84.08
2023-03-05T06:55:47.582Z,83.69
2023-03-05T06:56:20.669Z,83.52
2023-03-05T06:56:52.306Z,83.39
2023-03-05T06:57:24.172Z,83.33
2023-03-05T06:57:55.989Z,83.35
2023-03-05T06:58:27.600Z,83.17